Time;durP1;ratioP1;P1;durP2;ratioP2;P2;SDS_P1;SDS_P2;PMS_P1;PMS_P2;Temp;Humidity;BMP_temperature;BMP_pressure;BME280_temperature;BME280_humidity;BME280_pressure;Samples;Min_cycle;Max_cycle;Signal;HPM_P1;HPM_P2
2024/01/01 00:00:30;;;;;;;6.50;3.20;;;;;;;-148.88;100.00;-17125.47;5033363;28;20018;-87
2024/01/01 00:02:55;;;;;;;8.45;4.15;;;;;;;-148.88;100.00;-17125.47;5033584;28;20087;-86
2024/01/01 00:05:20;;;;;;;7.40;3.10;;;;;;;-148.88;100.00;-17125.47;5033383;28;20499;-86
2024/01/01 00:07:50;;;;;;;6.32;2.35;;;;;;;-148.88;100.00;-17125.47;5033532;28;20038;-86
2024/01/01 00:10:16;;;;;;;8.73;4.57;;;;;;;-148.88;100.00;-17125.47;5033253;28;20499;-86
2024/01/01 00:12:42;;;;;;;4.88;2.10;;;;;;;-148.88;100.00;-17125.47;5033428;28;20029;-84
2024/01/01 00:15:08;;;;;;;5.28;2.65;;;;;;;-148.88;100.00;-17125.47;5033354;28;20037;-86
2024/01/01 00:17:33;;;;;;;11.20;4.18;;;;;;;-148.88;100.00;-17125.47;5033443;28;20029;-86
2024/01/01 00:19:59;;;;;;;7.32;3.70;;;;;;;-148.88;100.00;-17125.47;5033902;28;20048;-86
2024/01/01 00:22:25;;;;;;;8.98;2.50;;;;;;;-148.88;100.00;-17125.47;5032793;28;20055;-86
2024/01/01 00:24:50;;;;;;;8.82;3.28;;;;;;;-148.88;100.00;-17125.47;5033031;28;20025;-86
2024/01/01 00:27:15;;;;;;;5.80;2.50;;;;;;;-148.88;100.00;-17125.47;5032738;28;20492;-86
2024/01/01 00:29:41;;;;;;;6.63;2.55;;;;;;;-148.88;100.00;-17125.47;5032781;28;20026;-86
2024/01/01 00:32:06;;;;;;;10.73;3.53;;;;;;;-148.88;100.00;-17125.47;5032825;28;20025;-85
2024/01/01 00:34:31;;;;;;;6.40;2.15;;;;;;;-148.88;100.00;-17125.47;5033427;28;20053;-85
2024/01/01 00:36:56;;;;;;;5.05;3.05;;;;;;;-148.88;100.00;-17125.47;5032628;28;20040;-85
2024/01/01 00:39:22;;;;;;;6.20;3.28;;;;;;;-148.88;100.00;-17125.47;5032538;28;20032;-86
2024/01/01 00:41:47;;;;;;;4.70;2.03;;;;;;;-148.88;100.00;-17125.47;5032347;28;20121;-86
2024/01/01 00:44:12;;;;;;;6.95;3.00;;;;;;;-148.88;100.00;-17125.47;5032486;28;20040;-86
2024/01/01 00:46:38;;;;;;;9.35;2.80;;;;;;;-148.88;100.00;-17125.47;5032417;28;20017;-86
2024/01/01 00:49:03;;;;;;;10.95;3.92;;;;;;;-148.88;100.00;-17125.47;5014691;28;20373;-87
2024/01/01 00:51:29;;;;;;;9.48;3.05;;;;;;;-148.88;100.00;-17125.47;5032298;28;20460;-86
2024/01/01 00:53:54;;;;;;;9.18;4.90;;;;;;;-148.88;100.00;-17125.47;5032942;28;20032;-87
2024/01/01 00:56:19;;;;;;;11.23;3.28;;;;;;;-148.88;100.00;-17125.47;5032242;28;20026;-86
2024/01/01 00:58:45;;;;;;;8.40;3.10;;;;;;;-148.88;100.00;-17125.47;5031376;28;20025;-86
2024/01/01 01:01:10;;;;;;;7.97;3.33;;;;;;;-148.88;100.00;-17125.47;5032478;28;20076;-86
2024/01/01 01:03:36;;;;;;;6.15;2.97;;;;;;;-148.88;100.00;-17125.47;5032624;28;20032;-86
2024/01/01 01:06:02;;;;;;;10.45;3.25;;;;;;;-148.88;100.00;-17125.47;5015056;28;20025;-86
2024/01/01 01:08:27;;;;;;;10.10;3.75;;;;;;;-148.88;100.00;-17125.47;5014535;28;20030;-86
2024/01/01 01:10:52;;;;;;;12.40;6.72;;;;;;;-148.88;100.00;-17125.47;5032120;28;20018;-86
2024/01/01 01:13:18;;;;;;;10.27;3.67;;;;;;;-148.88;100.00;-17125.47;5032090;28;20049;-86
2024/01/01 01:15:43;;;;;;;11.52;4.40;;;;;;;-148.88;100.00;-17125.47;5032113;28;20480;-86
2024/01/01 01:18:09;;;;;;;11.00;4.28;;;;;;;-148.88;100.00;-17125.47;5031965;28;20500;-86
2024/01/01 01:20:34;;;;;;;12.75;7.97;;;;;;;-148.88;100.00;-17125.47;5014248;28;20115;-87
2024/01/01 01:22:59;;;;;;;15.73;4.90;;;;;;;-148.88;100.00;-17125.47;4994298;28;1093122;-86
2024/01/01 01:25:25;;;;;;;15.30;4.78;;;;;;;-148.88;100.00;-17125.47;5032947;28;20508;-86
2024/01/01 01:27:50;;;;;;;9.13;4.60;;;;;;;-148.88;100.00;-17125.47;5032742;28;20036;-86
2024/01/01 01:30:23;;;;;;;14.00;7.55;;;;;;;-148.88;100.00;-17125.47;5036194;28;20064;-86
2024/01/01 01:32:49;;;;;;;8.00;4.40;;;;;;;-148.88;100.00;-17125.47;5021274;28;20087;-86
2024/01/01 01:35:14;;;;;;;10.40;4.10;;;;;;;-148.88;100.00;-17125.47;5034017;28;20029;-86
2024/01/01 01:37:39;;;;;;;9.45;4.30;;;;;;;-148.88;100.00;-17125.47;5015147;28;20480;-86
2024/01/01 01:40:34;;;;;;;9.93;4.20;;;;;;;-148.88;100.00;-17125.47;5039314;28;20033;-85
2024/01/01 01:42:59;;;;;;;8.52;3.95;;;;;;;-148.88;100.00;-17125.47;5005609;28;20488;-86
2024/01/01 01:45:25;;;;;;;12.75;4.18;;;;;;;-148.88;100.00;-17125.47;5033424;28;20036;-86
2024/01/01 01:47:52;;;;;;;8.48;3.95;;;;;;;-148.88;100.00;-17125.47;5032931;28;20033;-86
2024/01/01 01:50:17;;;;;;;13.52;3.70;;;;;;;-148.88;100.00;-17125.47;5014889;28;20057;-86
2024/01/01 01:52:44;;;;;;;13.55;3.97;;;;;;;-148.88;100.00;-17125.47;5032552;28;20052;-86
2024/01/01 01:55:12;;;;;;;9.25;4.30;;;;;;;-148.88;100.00;-17125.47;5032850;28;20083;-86
2024/01/01 01:57:38;;;;;;;7.45;3.33;;;;;;;-148.88;100.00;-17125.47;5032611;28;20029;-86
2024/01/01 02:00:05;;;;;;;11.85;3.78;;;;;;;-148.88;100.00;-17125.47;5032418;28;20025;-87
2024/01/01 02:02:33;;;;;;;11.02;4.03;;;;;;;-148.88;100.00;-17125.47;5032591;28;20033;-85
2024/01/01 02:04:59;;;;;;;10.93;3.80;;;;;;;-148.88;99.77;-17125.47;5032674;28;20563;-87
2024/01/01 02:07:24;;;;;;;10.85;3.53;;;;;;;-148.88;99.91;-17125.47;5032804;28;20108;-86
2024/01/01 02:09:49;;;;;;;8.70;3.80;;;;;;;-148.88;100.00;-17125.47;5017356;28;20029;-86
2024/01/01 02:12:15;;;;;;;9.50;4.22;;;;;;;-148.88;99.88;-17125.47;5035932;28;20024;-86
2024/01/01 02:14:40;;;;;;;12.95;4.05;;;;;;;-148.88;99.86;-17125.47;5036056;28;20392;-86
2024/01/01 02:17:07;;;;;;;9.88;4.10;;;;;;;-148.88;99.98;-17125.47;5036229;28;20025;-86
2024/01/01 02:19:32;;;;;;;17.20;4.07;;;;;;;-148.88;99.20;-17125.47;5035741;28;20113;-87
2024/01/01 02:21:57;;;;;;;10.77;4.30;;;;;;;-148.88;99.01;-17125.47;5035490;28;20183;-86
2024/01/01 02:24:26;;;;;;;14.23;7.75;;;;;;;-148.88;100.00;-17125.47;5035917;28;20480;-86
2024/01/01 02:26:51;;;;;;;8.82;4.22;;;;;;;-148.88;100.00;-17125.47;5018673;28;20048;-86
2024/01/01 02:29:17;;;;;;;10.77;4.18;;;;;;;-148.88;99.16;-17125.47;5035537;28;20480;-86
2024/01/01 02:31:43;;;;;;;15.18;7.72;;;;;;;-148.88;98.67;-17125.47;5035561;28;20436;-86
2024/01/01 02:34:09;;;;;;;13.20;4.63;;;;;;;-148.88;99.28;-17125.47;5035648;28;20655;-86
2024/01/01 02:36:36;;;;;;;16.10;4.65;;;;;;;-148.88;99.67;-17125.47;5035589;28;20104;-87
2024/01/01 02:39:03;;;;;;;12.32;4.35;;;;;;;-148.88;98.93;-17125.47;5035390;28;20392;-87
2024/01/01 02:41:30;;;;;;;14.15;7.95;;;;;;;-148.88;99.01;-17125.47;5033956;28;20033;-87
2024/01/01 02:43:55;;;;;;;13.07;4.97;;;;;;;-148.88;99.38;-17125.47;5035378;28;20083;-87
2024/01/01 02:46:20;;;;;;;8.80;3.92;;;;;;;-148.88;98.61;-17125.47;5035518;28;20023;-86
2024/01/01 02:48:46;;;;;;;11.65;4.70;;;;;;;-148.88;99.59;-17125.47;5035286;28;20499;-86
2024/01/01 02:51:11;;;;;;;9.10;4.15;;;;;;;-148.88;98.77;-17125.47;5017606;28;20044;-86
2024/01/01 02:53:36;;;;;;;9.95;4.22;;;;;;;-148.88;98.80;-17125.47;5035037;28;20022;-86
2024/01/01 02:56:02;;;;;;;8.73;4.05;;;;;;;-148.88;99.08;-17125.47;5035128;28;20057;-86
2024/01/01 02:58:28;;;;;;;12.02;3.85;;;;;;;-148.88;98.41;-17125.47;5017319;28;20116;-87
2024/01/01 03:00:53;;;;;;;14.35;4.63;;;;;;;-148.88;96.99;-17125.47;5035050;28;20485;-86
2024/01/01 03:03:19;;;;;;;11.18;4.05;;;;;;;-148.88;97.42;-17125.47;5035035;28;20025;-86
2024/01/01 03:05:44;;;;;;;13.00;3.88;;;;;;;-148.88;97.79;-17125.47;5017196;28;20079;-86
2024/01/01 03:08:10;;;;;;;10.77;4.22;;;;;;;-148.88;98.21;-17125.47;5035183;28;20027;-86
2024/01/01 03:10:36;;;;;;;8.45;3.92;;;;;;;-148.88;97.36;-17125.47;5034800;28;20025;-86
2024/01/01 03:13:02;;;;;;;7.70;3.40;;;;;;;-148.88;97.58;-17125.47;5034679;28;20017;-87
2024/01/01 03:15:27;;;;;;;12.90;7.47;;;;;;;-148.88;97.28;-17125.47;5034759;28;20029;-86
2024/01/01 03:17:53;;;;;;;8.50;3.53;;;;;;;-148.88;97.74;-17125.47;5035524;28;20040;-86
2024/01/01 03:20:18;;;;;;;9.00;3.90;;;;;;;-148.88;97.90;-17125.47;5033850;28;20056;-86
2024/01/01 03:22:45;;;;;;;11.80;6.60;;;;;;;-148.88;97.25;-17125.47;5034387;28;20083;-86
2024/01/01 03:25:11;;;;;;;8.23;3.35;;;;;;;-148.88;98.09;-17125.47;5035013;28;20463;-86
2024/01/01 03:27:36;;;;;;;8.77;3.85;;;;;;;-148.88;97.91;-17125.47;5034616;28;20112;-86
2024/01/01 03:30:05;;;;;;;9.23;4.22;;;;;;;-148.88;97.32;-17125.47;5034792;28;20055;-85
2024/01/01 03:32:33;;;;;;;9.30;3.25;;;;;;;-148.88;96.67;-17125.47;5034740;28;20032;-86
2024/01/01 03:34:58;;;;;;;6.82;3.17;;;;;;;-148.88;96.54;-17125.47;5016971;28;20041;-86
2024/01/01 03:37:23;;;;;;;7.57;3.40;;;;;;;-148.88;96.56;-17125.47;5034461;28;20053;-86
2024/01/01 03:39:49;;;;;;;15.85;6.20;;;;;;;-148.88;97.47;-17125.47;5034425;28;20395;-86
2024/01/01 03:42:14;;;;;;;5.97;2.92;;;;;;;-148.88;97.46;-17125.47;5034249;28;20056;-86
2024/01/01 03:44:39;;;;;;;9.63;3.45;;;;;;;-148.88;97.50;-17125.47;5055151;28;20029;-83
2024/01/01 03:47:05;;;;;;;9.25;3.42;;;;;;;-148.88;97.93;-17125.47;5059775;28;20014;-84
2024/01/01 03:49:30;;;;;;;10.85;3.60;;;;;;;-148.88;98.17;-17125.47;5039059;28;20089;-85
2024/01/01 03:51:55;;;;;;;12.65;2.90;;;;;;;-148.88;99.11;-17125.47;5034601;28;20495;-85
2024/01/01 03:54:21;;;;;;;10.27;2.75;;;;;;;-148.88;100.00;-17125.47;5034166;28;20025;-84
2024/01/01 03:56:46;;;;;;;9.27;3.70;;;;;;;-148.88;100.00;-17125.47;5034254;28;20538;-84
2024/01/01 03:59:11;;;;;;;8.13;2.63;;;;;;;-148.88;100.00;-17125.47;5034424;28;20021;-85
2024/01/01 04:01:37;;;;;;;7.78;2.30;;;;;;;-148.88;100.00;-17125.47;5034172;28;20030;-85
2024/01/01 04:04:04;;;;;;;7.20;2.40;;;;;;;-148.88;100.00;-17125.47;5034247;28;20028;-85
2024/01/01 04:06:30;;;;;;;10.32;2.72;;;;;;;-148.88;100.00;-17125.47;5016381;28;20025;-85
2024/01/01 04:08:55;;;;;;;10.82;3.15;;;;;;;-148.88;100.00;-17125.47;5033935;28;20361;-84
2024/01/01 04:11:20;;;;;;;9.77;3.75;;;;;;;-148.88;100.00;-17125.47;5033914;28;20025;-84
2024/01/01 04:13:46;;;;;;;11.10;3.35;;;;;;;-148.88;100.00;-17125.47;5033875;28;20039;-85
2024/01/01 04:16:11;;;;;;;10.05;2.97;;;;;;;-148.88;100.00;-17125.47;5033986;28;20025;-85
2024/01/01 04:18:36;;;;;;;9.48;2.67;;;;;;;-148.88;100.00;-17125.47;5033717;28;20026;-84
2024/01/01 04:21:02;;;;;;;13.02;3.53;;;;;;;-148.88;100.00;-17125.47;5033679;28;20109;-85
2024/01/01 04:23:27;;;;;;;6.80;2.50;;;;;;;-148.88;100.00;-17125.47;5034329;28;20456;-85
2024/01/01 04:25:52;;;;;;;9.90;3.22;;;;;;;-148.88;100.00;-17125.47;5033796;28;20557;-85
2024/01/01 04:28:18;;;;;;;6.45;2.13;;;;;;;-148.88;100.00;-17125.47;5015760;28;20067;-85
2024/01/01 04:30:43;;;;;;;6.78;2.85;;;;;;;-148.88;100.00;-17125.47;5033472;28;20108;-85
2024/01/01 04:33:08;;;;;;;10.95;2.78;;;;;;;-148.88;100.00;-17125.47;5033374;28;20032;-85
2024/01/01 04:35:34;;;;;;;5.38;2.40;;;;;;;-148.88;100.00;-17125.47;5033630;28;20439;-85
2024/01/01 04:37:59;;;;;;;7.50;2.47;;;;;;;-148.88;100.00;-17125.47;5033410;28;20025;-85
2024/01/01 04:40:24;;;;;;;8.38;4.15;;;;;;;-148.88;100.00;-17125.47;5033347;28;20057;-85
2024/01/01 04:42:50;;;;;;;6.82;1.85;;;;;;;-148.88;100.00;-17125.47;5033254;28;20022;-85
2024/01/01 04:45:15;;;;;;;6.13;2.20;;;;;;;-148.88;100.00;-17125.47;5033496;28;20026;-85
2024/01/01 04:47:41;;;;;;;5.80;2.25;;;;;;;-148.88;100.00;-17125.47;5033495;28;20021;-85
2024/01/01 04:50:08;;;;;;;7.97;2.45;;;;;;;-148.88;100.00;-17125.47;5033542;28;20021;-85
2024/01/01 04:52:34;;;;;;;5.70;1.90;;;;;;;-148.88;100.00;-17125.47;5033162;28;20021;-85
2024/01/01 04:54:59;;;;;;;8.07;1.77;;;;;;;-148.88;100.00;-17125.47;5033275;28;20025;-85
2024/01/01 04:57:25;;;;;;;7.55;1.83;;;;;;;-148.88;100.00;-17125.47;5033327;28;20052;-84
2024/01/01 04:59:50;;;;;;;8.43;2.00;;;;;;;-148.88;100.00;-17125.47;5033164;28;20037;-85
2024/01/01 05:02:15;;;;;;;3.40;1.27;;;;;;;-148.88;100.00;-17125.47;5032936;28;20076;-84
2024/01/01 05:04:41;;;;;;;5.40;1.42;;;;;;;-148.88;100.00;-17125.47;5032956;28;20032;-84
2024/01/01 05:07:06;;;;;;;8.13;1.55;;;;;;;-148.88;100.00;-17125.47;5032995;28;20436;-84
2024/01/01 05:09:32;;;;;;;2.85;1.13;;;;;;;-148.88;100.00;-17125.47;5032596;28;20021;-85
2024/01/01 05:11:57;;;;;;;6.72;1.70;;;;;;;-148.88;100.00;-17125.47;5033095;28;20014;-83
2024/01/01 05:14:22;;;;;;;5.38;1.45;;;;;;;-148.88;100.00;-17125.47;5033177;28;20032;-84
2024/01/01 05:16:48;;;;;;;9.20;1.73;;;;;;;-148.88;100.00;-17125.47;5033123;28;20026;-85
2024/01/01 05:19:14;;;;;;;5.88;1.52;;;;;;;-148.88;100.00;-17125.47;5033011;28;20025;-86
2024/01/01 05:21:39;;;;;;;4.32;1.98;;;;;;;-148.88;100.00;-17125.47;5032694;28;20029;-85
2024/01/01 05:24:05;;;;;;;6.65;1.45;;;;;;;-148.88;100.00;-17125.47;5033150;28;20025;-84
2024/01/01 05:26:30;;;;;;;4.75;1.85;;;;;;;-148.88;100.00;-17125.47;5033362;28;20492;-86
2024/01/01 05:28:56;;;;;;;6.05;1.90;;;;;;;-148.88;100.00;-17125.47;5032872;28;20506;-85
2024/01/01 05:31:22;;;;;;;8.52;1.88;;;;;;;-148.88;100.00;-17125.47;5032717;28;20068;-85
2024/01/01 05:33:48;;;;;;;8.30;2.08;;;;;;;-148.88;100.00;-17125.47;5033006;28;20075;-86
2024/01/01 05:36:13;;;;;;;9.05;1.98;;;;;;;-148.88;100.00;-17125.47;5032792;28;20025;-85
2024/01/01 05:38:39;;;;;;;4.43;1.90;;;;;;;-148.88;100.00;-17125.47;5032931;28;20028;-85
2024/01/01 05:41:04;;;;;;;8.50;2.40;;;;;;;-148.88;100.00;-17125.47;5033012;28;20091;-85
2024/01/01 05:43:31;;;;;;;8.07;2.03;;;;;;;-148.88;100.00;-17125.47;5033175;28;20447;-86
2024/01/01 05:45:57;;;;;;;4.03;1.65;;;;;;;-148.88;100.00;-17125.47;5036464;28;20025;-84
2024/01/01 05:48:22;;;;;;;7.07;1.27;;;;;;;-148.88;100.00;-17125.47;5036561;28;20484;-85
2024/01/01 05:50:47;;;;;;;4.93;1.05;;;;;;;-148.88;100.00;-17125.47;5018665;28;20057;-86
2024/01/01 05:53:13;;;;;;;6.78;1.70;;;;;;;-148.88;100.00;-17125.47;5036597;28;20030;-86
2024/01/01 05:55:39;;;;;;;2.13;0.90;;;;;;;-148.88;100.00;-17125.47;5036396;28;20025;-87
2024/01/01 05:58:04;;;;;;;1.77;0.90;;;;;;;-148.88;100.00;-17125.47;5036487;28;20025;-87
2024/01/01 06:00:29;;;;;;;6.05;1.00;;;;;;;-148.88;100.00;-17125.47;5036448;28;20104;-86
2024/01/01 06:02:55;;;;;;;4.53;1.10;;;;;;;-148.88;100.00;-17125.47;5036218;28;20033;-84
2024/01/01 06:05:20;;;;;;;9.77;0.85;;;;;;;-148.88;100.00;-17125.47;5036471;28;20113;-85
2024/01/01 06:07:46;;;;;;;5.00;1.23;;;;;;;-148.88;100.00;-17125.47;5018395;28;20083;-85
2024/01/01 06:10:11;;;;;;;3.88;1.33;;;;;;;-148.88;100.00;-17125.47;5036244;28;20499;-85
2024/01/01 06:12:36;;;;;;;9.57;1.52;;;;;;;-148.88;100.00;-17125.47;5036430;28;20481;-85
2024/01/01 06:15:03;;;;;;;10.18;1.83;;;;;;;-148.88;100.00;-17125.47;5035904;28;20026;-85
2024/01/01 06:17:28;;;;;;;6.60;1.33;;;;;;;-148.88;100.00;-17125.47;5035926;28;20025;-85
2024/01/01 06:19:53;;;;;;;8.07;1.50;;;;;;;-148.88;100.00;-17125.47;5035968;28;20033;-86
2024/01/01 06:22:19;;;;;;;4.85;1.40;;;;;;;-148.88;100.00;-17125.47;5035894;28;20434;-85
2024/01/01 06:24:44;;;;;;;7.10;1.40;;;;;;;-148.88;100.00;-17125.47;5035732;28;20075;-84
2024/01/01 06:27:09;;;;;;;6.88;1.35;;;;;;;-148.88;100.00;-17125.47;5036071;28;20033;-84
2024/01/01 06:29:36;;;;;;;7.53;1.35;;;;;;;-148.88;100.00;-17125.47;5035954;28;20026;-84
2024/01/01 06:32:02;;;;;;;7.03;1.45;;;;;;;-148.88;100.00;-17125.47;5035575;28;20052;-84
2024/01/01 06:34:27;;;;;;;8.35;1.52;;;;;;;-148.88;100.00;-17125.47;5036298;28;20481;-85
2024/01/01 06:36:52;;;;;;;7.78;2.08;;;;;;;-148.88;100.00;-17125.47;5035511;28;20500;-84
2024/01/01 06:39:18;;;;;;;11.73;2.25;;;;;;;-148.88;100.00;-17125.47;5035531;28;20116;-84
2024/01/01 06:41:43;;;;;;;9.23;1.52;;;;;;;-148.88;100.00;-17125.47;5035420;28;20109;-85
2024/01/01 06:44:09;;;;;;;8.18;1.73;;;;;;;-148.88;100.00;-17125.47;5035942;28;20368;-85
2024/01/01 06:46:34;;;;;;;8.15;1.75;;;;;;;-148.88;100.00;-17125.47;5035599;28;20026;-85
2024/01/01 06:48:59;;;;;;;7.05;1.45;;;;;;;-148.88;100.00;-17125.47;5035527;28;20052;-85
2024/01/01 06:51:25;;;;;;;6.88;1.30;;;;;;;-148.88;100.00;-17125.47;5035391;28;20018;-83
2024/01/01 06:53:51;;;;;;;9.30;1.73;;;;;;;-148.88;100.00;-17125.47;5035241;28;20107;-83
2024/01/01 06:56:16;;;;;;;10.07;1.40;;;;;;;-148.88;100.00;-17125.47;5017406;28;20028;-85
2024/01/01 06:58:42;;;;;;;5.90;2.47;;;;;;;-148.88;100.00;-17125.47;5035403;28;20029;-85
2024/01/01 07:01:08;;;;;;;5.78;1.52;;;;;;;-148.88;100.00;-17125.47;5035034;28;20492;-85
2024/01/01 07:03:33;;;;;;;5.40;1.42;;;;;;;-148.88;100.00;-17125.47;5035031;28;20459;-86
2024/01/01 07:05:58;;;;;;;7.70;2.10;;;;;;;-148.88;100.00;-17125.47;5034990;28;20026;-85
2024/01/01 07:08:24;;;;;;;9.85;2.42;;;;;;;-148.88;100.00;-17125.47;5035424;28;20447;-85
2024/01/01 07:10:49;;;;;;;9.20;3.17;;;;;;;-148.88;100.00;-17125.47;5034989;28;20018;-85
2024/01/01 07:13:15;;;;;;;4.90;1.08;;;;;;;-148.88;100.00;-17125.47;5035004;28;20506;-84
2024/01/01 07:15:40;;;;;;;8.52;1.48;;;;;;;-148.88;100.00;-17125.47;5034880;28;20021;-84
2024/01/01 07:18:07;;;;;;;4.43;1.40;;;;;;;-148.88;100.00;-17125.47;5035041;28;20033;-84
2024/01/01 07:20:32;;;;;;;7.88;1.50;;;;;;;-148.88;100.00;-17125.47;5034995;28;20029;-85
2024/01/01 07:22:57;;;;;;;5.85;1.65;;;;;;;-148.88;100.00;-17125.47;5034554;28;20404;-84
2024/01/01 07:25:24;;;;;;;10.65;1.48;;;;;;;-148.88;100.00;-17125.47;5034855;28;20369;-84
2024/01/01 07:27:50;;;;;;;8.35;1.70;;;;;;;-148.88;100.00;-17125.47;5034728;28;20506;-84
2024/01/01 07:30:15;;;;;;;14.18;3.80;;;;;;;-148.88;100.00;-17125.47;5034794;28;20112;-84
2024/01/01 07:32:40;;;;;;;6.97;1.35;;;;;;;-148.88;100.00;-17125.47;5034813;28;20029;-85
2024/01/01 07:35:08;;;;;;;4.15;1.38;;;;;;;-148.88;100.00;-17125.47;5034576;28;20029;-85
2024/01/01 07:37:34;;;;;;;9.25;1.67;;;;;;;-148.88;100.00;-17125.47;5016711;28;20071;-85
2024/01/01 07:39:59;;;;;;;11.00;2.25;;;;;;;-148.88;100.00;-17125.47;5034509;28;20029;-85
2024/01/01 07:42:26;;;;;;;8.82;2.08;;;;;;;-148.88;100.00;-17125.47;5016621;28;20029;-86
2024/01/01 07:44:52;;;;;;;12.45;2.03;;;;;;;-148.88;100.00;-17125.47;5016758;28;20479;-85
2024/01/01 07:47:19;;;;;;;5.45;1.30;;;;;;;-148.88;100.00;-17125.47;5033073;28;20094;-85
2024/01/01 07:49:45;;;;;;;7.38;1.10;;;;;;;-148.88;100.00;-17125.47;5034503;28;20021;-86
2024/01/01 07:52:11;;;;;;;8.32;1.67;;;;;;;-148.88;100.00;-17125.47;5034234;28;20029;-85
2024/01/01 07:54:38;;;;;;;9.55;1.60;;;;;;;-148.88;100.00;-17125.47;5016389;28;20028;-85
2024/01/01 07:57:04;;;;;;;7.85;1.73;;;;;;;-148.88;100.00;-17125.47;5034353;28;20429;-84
2024/01/01 07:59:29;;;;;;;5.53;1.25;;;;;;;-148.88;100.00;-17125.47;5016812;28;20037;-86
2024/01/01 08:01:55;;;;;;;7.38;1.75;;;;;;;-148.88;100.00;-17125.47;5034052;28;20036;-85
2024/01/01 08:04:20;;;;;;;3.33;1.42;;;;;;;-148.88;100.00;-17125.47;5033856;28;20120;-85
2024/01/01 08:06:46;;;;;;;8.45;2.80;;;;;;;-148.88;100.00;-17125.47;5033710;28;20021;-87
2024/01/01 08:09:11;;;;;;;8.18;2.35;;;;;;;-148.88;100.00;-17125.47;5016160;28;20028;-86
2024/01/01 08:11:36;;;;;;;6.97;1.20;;;;;;;-148.88;100.00;-17125.47;5016962;28;20042;-86
2024/01/01 08:14:02;;;;;;;15.10;1.63;;;;;;;-148.88;100.00;-17125.47;5034224;28;20116;-86
2024/01/01 08:16:27;;;;;;;10.77;1.92;;;;;;;-148.88;100.00;-17125.47;5034093;28;20033;-86
2024/01/01 08:18:56;;;;;;;9.52;2.90;;;;;;;-148.88;100.00;-17125.47;5034265;28;20036;-86
2024/01/01 08:21:22;;;;;;;7.13;1.40;;;;;;;-148.88;100.00;-17125.47;5033139;28;20037;-86
2024/01/01 08:23:47;;;;;;;7.53;1.70;;;;;;;-148.88;100.00;-17125.47;5033812;28;20021;-86
2024/01/01 08:26:15;;;;;;;7.22;1.77;;;;;;;-148.88;100.00;-17125.47;5034120;28;20029;-86
2024/01/01 08:28:41;;;;;;;17.75;1.45;;;;;;;-148.88;100.00;-17125.47;5034003;28;20025;-86
2024/01/01 08:31:06;;;;;;;5.53;1.50;;;;;;;-148.88;100.00;-17125.47;5020977;28;20006;-85
2024/01/01 08:33:31;;;;;;;9.52;1.67;;;;;;;-148.88;100.00;-17125.47;5059061;28;20091;-85
2024/01/01 08:35:57;;;;;;;11.88;2.47;;;;;;;-148.88;100.00;-17125.47;5056821;28;20087;-86
2024/01/01 08:38:23;;;;;;;4.63;1.13;;;;;;;-148.88;100.00;-17125.47;5016809;28;20470;-86
2024/01/01 08:40:51;;;;;;;12.15;1.90;;;;;;;-148.88;100.00;-17125.47;5016748;28;20029;-86
2024/01/01 08:43:16;;;;;;;5.15;1.73;;;;;;;-148.88;100.00;-17125.47;5016059;28;20391;-86
2024/01/01 08:45:42;;;;;;;11.30;2.08;;;;;;;-148.88;100.00;-17125.47;5034817;28;20025;-86
2024/01/01 08:48:07;;;;;;;6.22;1.70;;;;;;;-148.88;100.00;-17125.47;5017621;28;20022;-86
2024/01/01 08:50:33;;;;;;;6.78;1.73;;;;;;;-148.88;100.00;-17125.47;5018150;28;20056;-86
2024/01/01 08:52:58;;;;;;;10.88;1.85;;;;;;;-148.88;100.00;-17125.47;5035900;28;20022;-86
2024/01/01 08:55:24;;;;;;;5.18;1.30;;;;;;;-148.88;100.00;-17125.47;5034837;28;20021;-86
2024/01/01 08:57:49;;;;;;;9.65;2.70;;;;;;;-148.88;100.00;-17125.47;5033754;28;20060;-86
2024/01/01 09:00:16;;;;;;;13.05;1.85;;;;;;;-148.88;100.00;-17125.47;5033839;28;20090;-87
2024/01/01 09:02:42;;;;;;;6.88;1.80;;;;;;;-148.88;100.00;-17125.47;5016429;28;20032;-87
2024/01/01 09:05:08;;;;;;;6.35;1.63;;;;;;;-148.88;100.00;-17125.47;5033667;28;20069;-87
2024/01/01 09:07:33;;;;;;;7.32;1.45;;;;;;;-148.88;100.00;-17125.47;5034070;28;20021;-87
2024/01/01 09:10:01;;;;;;;6.03;1.73;;;;;;;-148.88;100.00;-17125.47;5033493;28;20193;-87
2024/01/01 09:12:27;;;;;;;5.82;1.65;;;;;;;-148.88;100.00;-17125.47;5033484;28;20022;-89
2024/01/01 09:14:52;;;;;;;9.15;2.00;;;;;;;-148.88;100.00;-17125.47;5033462;28;20108;-87
2024/01/01 09:17:18;;;;;;;11.77;2.40;;;;;;;-148.88;100.00;-17125.47;5033548;28;20028;-87
2024/01/01 09:19:44;;;;;;;6.90;1.65;;;;;;;-148.88;100.00;-17125.47;5035740;28;20116;-87
2024/01/01 09:22:09;;;;;;;8.32;2.50;;;;;;;-148.88;100.00;-17125.47;5036937;28;20495;-87
2024/01/01 09:24:35;;;;;;;5.70;1.65;;;;;;;-148.88;100.00;-17125.47;5020248;28;20022;-87
2024/01/01 09:27:01;;;;;;;3.33;1.55;;;;;;;-148.88;100.00;-17125.47;5037564;28;20435;-87
2024/01/01 09:29:27;;;;;;;5.00;1.65;;;;;;;-148.88;100.00;-17125.47;5037485;28;20369;-87
2024/01/01 09:31:52;;;;;;;7.68;2.15;;;;;;;-148.88;100.00;-17125.47;5036877;28;20018;-86
2024/01/01 09:34:23;;;;;;;4.55;1.40;;;;;;;-148.88;100.00;-17125.47;5037879;28;20423;-87
2024/01/01 09:36:48;;;;;;;7.47;2.00;;;;;;;-148.88;100.00;-17125.47;5020459;28;20337;-87
2024/01/01 09:39:14;;;;;;;8.23;2.00;;;;;;;-148.88;100.00;-17125.47;5019113;28;20431;-87
2024/01/01 09:41:39;;;;;;;7.50;2.30;;;;;;;-148.88;100.00;-17125.47;5036945;28;20029;-87
2024/01/01 09:44:05;;;;;;;5.53;2.20;;;;;;;-148.88;100.00;-17125.47;5037052;28;20025;-86
2024/01/01 09:46:33;;;;;;;6.38;2.55;;;;;;;-148.88;100.00;-17125.47;5036908;28;20499;-87
2024/01/01 09:48:59;;;;;;;8.90;2.00;;;;;;;-148.88;100.00;-17125.47;5019572;28;20112;-87
2024/01/01 09:51:26;;;;;;;5.05;1.90;;;;;;;-148.88;100.00;-17125.47;5019325;28;20024;-87
2024/01/01 09:53:52;;;;;;;8.57;3.03;;;;;;;-148.88;100.00;-17125.47;5018684;28;20075;-87
2024/01/01 09:56:21;;;;;;;7.53;2.33;;;;;;;-148.88;100.00;-17125.47;5035232;28;20029;-87
2024/01/01 09:58:47;;;;;;;9.60;2.30;;;;;;;-148.88;100.00;-17125.47;5018955;28;20025;-87
2024/01/01 10:01:21;;;;;;;5.85;1.80;;;;;;;-148.88;100.00;-17125.47;5019361;28;20391;-87
2024/01/01 10:04:04;;;;;;;5.18;2.33;;;;;;;-148.88;100.00;-17125.47;5019386;28;20126;-88
2024/01/01 10:06:31;;;;;;;4.13;1.98;;;;;;;-148.88;100.00;-17125.47;5019021;28;20044;-87
2024/01/01 10:09:09;;;;;;;7.18;2.05;;;;;;;-148.88;100.00;-17125.47;5036534;28;20079;-87
2024/01/01 10:11:35;;;;;;;5.82;2.25;;;;;;;-148.88;100.00;-17125.47;5036479;28;20017;-87
2024/01/01 10:14:04;;;;;;;4.80;1.90;;;;;;;-148.88;100.00;-17125.47;5019085;28;20021;-87
2024/01/01 10:16:30;;;;;;;6.47;2.70;;;;;;;-148.88;100.00;-17125.47;5036586;28;20033;-87
2024/01/01 10:19:01;;;;;;;6.90;2.15;;;;;;;-148.88;100.00;-17125.47;5018462;28;20507;-86
2024/01/01 10:21:40;;;;;;;4.13;2.10;;;;;;;-148.88;100.00;-17125.47;5035748;28;20404;-85
2024/01/01 10:24:21;;;;;;;8.15;2.47;;;;;;;-148.88;100.00;-17125.47;5036517;28;20021;-85
2024/01/01 10:26:48;;;;;;;5.28;2.13;;;;;;;-148.88;100.00;-17125.47;5036223;28;20025;-87
2024/01/01 10:29:16;;;;;;;4.68;1.88;;;;;;;-148.88;100.00;-17125.47;5017724;28;20021;-87
2024/01/01 10:31:50;;;;;;;8.18;2.83;;;;;;;-148.88;100.00;-17125.47;5035934;28;20021;-86
2024/01/01 10:34:18;;;;;;;4.72;2.58;;;;;;;-148.88;100.00;-17125.47;5018113;28;20480;-85
2024/01/01 10:36:44;;;;;;;4.47;1.85;;;;;;;-148.88;100.00;-17125.47;5018153;28;20028;-86
2024/01/01 10:39:10;;;;;;;8.15;3.25;;;;;;;-148.88;100.00;-17125.47;5036754;28;20029;-85
2024/01/01 10:41:38;;;;;;;6.18;2.10;;;;;;;-148.88;100.00;-17125.47;5036291;28;20026;-86
2024/01/01 10:44:08;;;;;;;10.80;2.10;;;;;;;-148.88;100.00;-17125.47;5035929;28;20021;-86
2024/01/01 10:46:36;;;;;;;7.57;1.90;;;;;;;-148.88;100.00;-17125.47;5018465;28;20059;-85
2024/01/01 10:49:08;;;;;;;9.05;2.25;;;;;;;-148.88;100.00;-17125.47;5036231;28;20049;-86
2024/01/01 10:52:05;;;;;;;7.85;1.60;;;;;;;-148.88;100.00;-17125.47;5017762;28;20018;-87
2024/01/01 10:55:05;;;;;;;4.15;1.70;;;;;;;-148.88;100.00;-17125.47;5017810;28;20075;-87
2024/01/01 10:57:58;;;;;;;4.72;1.63;;;;;;;-148.88;100.00;-17125.47;5017764;28;20055;-86